Marlinton, West Virginia
Current Conditions -  °F | °C
As of 10:15 PM on Saturday 20 Dec 2014 (Local Time) from KHSP Reporting Station
Overcast Overcast  
Wind Chill: -5°   Ceiling: 1400
Heat Index: -1°   Visibility: 7mi
Dew Point: -1°   Wind: 8mph
Humidity: 100%   Direction: 270°W
Pressure: 30.1"   Gusts: NA
Location:  38.22°N, 80.09°W
Report Text: KHSP 210315Z AUTO 27007KT 7SM BKN014 OVC036 M01/M01 A3010 RMK AO2 T10101010
Loading
Personal Weather Stations






























Interactive Weather Map New forecast layout! Learn more

10-Day Weather Forecast

Advertisements
Track Severe Weather on mobile